createdAt,value
2022-09-13T00:01:08.683Z,0
2022-09-13T00:02:17.857Z,0
2022-09-13T00:03:27.038Z,0
2022-09-13T00:04:36.225Z,0
2022-09-13T00:05:45.408Z,0
2022-09-13T00:06:54.562Z,0
2022-09-13T00:08:03.717Z,0
2022-09-13T00:09:12.977Z,0
2022-09-13T00:10:22.062Z,0
2022-09-13T00:11:30.269Z,0
2022-09-13T00:12:39.429Z,0
2022-09-13T00:13:48.628Z,0
2022-09-13T00:14:57.788Z,0
2022-09-13T00:16:06.943Z,0
2022-09-13T00:17:16.110Z,0
2022-09-13T00:18:25.329Z,0
2022-09-13T00:19:34.465Z,0
2022-09-13T00:20:43.636Z,0
2022-09-13T00:21:52.816Z,0
2022-09-13T00:23:01.978Z,0
2022-09-13T00:24:11.157Z,0
2022-09-13T00:25:20.393Z,0
2022-09-13T00:26:29.501Z,0
2022-09-13T00:27:37.682Z,0
2022-09-13T00:28:46.856Z,0
2022-09-13T00:29:56.042Z,0
2022-09-13T00:31:05.209Z,0
2022-09-13T00:32:14.376Z,0
2022-09-13T00:33:23.545Z,0
2022-09-13T00:34:32.716Z,0
2022-09-13T00:35:41.926Z,0
2022-09-13T00:36:51.087Z,0
2022-09-13T00:38:00.240Z,0
2022-09-13T00:39:09.411Z,0
2022-09-13T00:40:18.583Z,0
2022-09-13T00:41:27.764Z,0
2022-09-13T00:42:35.952Z,0
2022-09-13T00:43:45.127Z,0
2022-09-13T00:44:54.286Z,0
2022-09-13T00:46:03.467Z,0
2022-09-13T00:47:11.712Z,0
2022-09-13T00:48:20.834Z,0
2022-09-13T00:49:29.999Z,0
2022-09-13T00:50:39.182Z,0
2022-09-13T00:51:48.353Z,0
2022-09-13T00:52:57.541Z,0
2022-09-13T00:54:06.705Z,0
2022-09-13T00:55:15.871Z,0
2022-09-13T00:56:25.043Z,0
2022-09-13T00:57:34.219Z,0
2022-09-13T00:58:43.423Z,0
2022-09-13T00:59:51.580Z,0
2022-09-13T01:00:59.765Z,0
2022-09-13T01:02:08.944Z,0
2022-09-13T01:03:18.117Z,0
2022-09-13T01:04:27.280Z,0
2022-09-13T01:05:36.461Z,0
2022-09-13T01:06:45.634Z,0
2022-09-13T01:07:54.837Z,0
2022-09-13T01:09:04.025Z,0
2022-09-13T01:10:13.190Z,0
2022-09-13T01:11:22.321Z,0
2022-09-13T01:12:31.499Z,0
2022-09-13T01:13:40.664Z,0
2022-09-13T01:14:49.840Z,0
2022-09-13T01:15:58.088Z,0
2022-09-13T01:17:07.207Z,0
2022-09-13T01:18:16.384Z,0
2022-09-13T01:19:25.544Z,0
2022-09-13T01:20:34.717Z,0
2022-09-13T01:21:43.940Z,0
2022-09-13T01:22:53.079Z,0
2022-09-13T01:24:01.264Z,0
2022-09-13T01:25:09.441Z,0
2022-09-13T01:26:18.624Z,0
2022-09-13T01:27:27.796Z,0
2022-09-13T01:28:36.979Z,0
2022-09-13T01:29:46.149Z,0
2022-09-13T01:30:55.330Z,0
2022-09-13T01:32:04.483Z,0
2022-09-13T01:33:13.690Z,0
2022-09-13T01:34:22.831Z,0
2022-09-13T01:35:32.025Z,0
2022-09-13T01:36:41.186Z,0
2022-09-13T01:37:50.345Z,0
2022-09-13T01:38:59.537Z,0
2022-09-13T01:40:07.706Z,0
2022-09-13T01:41:16.925Z,0
2022-09-13T01:42:26.064Z,0
2022-09-13T01:43:35.229Z,0
2022-09-13T01:44:44.412Z,0
2022-09-13T01:45:53.568Z,0
2022-09-13T01:47:02.740Z,0
2022-09-13T01:48:11.917Z,0
2022-09-13T01:49:21.101Z,0
2022-09-13T01:50:30.265Z,0
2022-09-13T01:51:39.450Z,0
2022-09-13T01:52:48.611Z,0
2022-09-13T01:53:57.785Z,0
2022-09-13T01:55:05.975Z,0
2022-09-13T01:56:15.186Z,0
2022-09-13T01:57:24.329Z,0
2022-09-13T01:58:33.487Z,0
2022-09-13T01:59:42.664Z,0
2022-09-13T02:00:51.824Z,0
2022-09-13T02:02:01.000Z,0
2022-09-13T02:03:10.173Z,0
2022-09-13T02:04:19.357Z,0
2022-09-13T02:05:28.524Z,0
2022-09-13T02:06:37.696Z,0
2022-09-13T02:07:46.878Z,0
2022-09-13T02:08:56.039Z,0
2022-09-13T02:10:04.242Z,0
2022-09-13T02:11:13.408Z,0
2022-09-13T02:12:22.617Z,0
2022-09-13T02:13:31.750Z,0
2022-09-13T02:14:40.917Z,0
2022-09-13T02:15:50.092Z,0
2022-09-13T02:16:59.263Z,0
2022-09-13T02:18:08.439Z,0
2022-09-13T02:19:17.615Z,0
2022-09-13T02:20:26.821Z,0
2022-09-13T02:21:35.951Z,0
2022-09-13T02:22:45.167Z,0
2022-09-13T02:23:54.304Z,0
2022-09-13T02:25:02.490Z,0
2022-09-13T02:26:11.656Z,0
2022-09-13T02:27:20.837Z,0
2022-09-13T02:28:30.009Z,0
2022-09-13T02:29:39.187Z,0
2022-09-13T02:30:48.362Z,0
2022-09-13T02:31:57.530Z,0
2022-09-13T02:33:06.698Z,0
2022-09-13T02:34:15.862Z,0
2022-09-13T02:35:25.056Z,0
2022-09-13T02:36:34.218Z,0
2022-09-13T02:37:43.394Z,0
2022-09-13T02:38:52.557Z,0
2022-09-13T02:40:00.750Z,0
2022-09-13T02:41:09.919Z,0
2022-09-13T02:42:19.103Z,0
2022-09-13T02:43:28.275Z,0
2022-09-13T02:44:37.485Z,0
2022-09-13T02:45:46.604Z,0
2022-09-13T02:46:55.788Z,0
2022-09-13T02:48:04.951Z,0
2022-09-13T02:49:14.125Z,0
2022-09-13T02:50:23.319Z,0
2022-09-13T02:51:32.483Z,0
2022-09-13T02:52:41.642Z,0
2022-09-13T02:53:50.825Z,0
2022-09-13T02:54:59.018Z,0
2022-09-13T02:56:08.180Z,0
2022-09-13T02:57:17.360Z,0
2022-09-13T02:58:26.528Z,0
2022-09-13T02:59:35.698Z,0
2022-09-13T03:00:44.880Z,0
2022-09-13T03:01:54.037Z,0
2022-09-13T03:03:03.216Z,0
2022-09-13T03:04:12.384Z,0
2022-09-13T03:05:21.564Z,0
2022-09-13T03:06:30.733Z,0
2022-09-13T03:07:39.948Z,0
2022-09-13T03:08:49.078Z,0
2022-09-13T03:09:57.262Z,0
2022-09-13T03:11:06.441Z,0
2022-09-13T03:12:15.669Z,0
2022-09-13T03:13:24.797Z,0
2022-09-13T03:14:33.964Z,0
2022-09-13T03:15:43.130Z,0
2022-09-13T03:16:52.305Z,0
2022-09-13T03:18:01.479Z,0
2022-09-13T03:19:10.670Z,0
2022-09-13T03:20:19.829Z,0
2022-09-13T03:21:28.989Z,0
2022-09-13T03:22:38.175Z,0
2022-09-13T03:23:47.422Z,0
2022-09-13T03:24:55.538Z,0
2022-09-13T03:26:04.701Z,0
2022-09-13T03:27:13.904Z,0
2022-09-13T03:28:23.053Z,0
2022-09-13T03:29:32.235Z,0
2022-09-13T03:30:41.393Z,0
2022-09-13T03:31:50.561Z,0
2022-09-13T03:32:59.773Z,0
2022-09-13T03:34:08.913Z,0
2022-09-13T03:35:18.094Z,0
2022-09-13T03:36:27.256Z,0
2022-09-13T03:37:36.429Z,0
2022-09-13T03:38:45.608Z,0
2022-09-13T03:39:53.791Z,0
2022-09-13T03:41:03.012Z,0
2022-09-13T03:42:12.147Z,0
2022-09-13T03:43:21.306Z,0
2022-09-13T03:44:30.497Z,0
2022-09-13T03:45:39.656Z,0
2022-09-13T03:46:48.826Z,0
2022-09-13T03:47:57.996Z,0
2022-09-13T03:49:07.174Z,0
2022-09-13T03:50:16.333Z,0
2022-09-13T03:51:25.510Z,0
2022-09-13T03:52:34.689Z,0
2022-09-13T03:53:43.868Z,0
2022-09-13T03:54:52.050Z,0
2022-09-13T03:56:01.231Z,0
2022-09-13T03:57:10.393Z,0
2022-09-13T03:58:19.573Z,0
2022-09-13T03:59:28.749Z,0
2022-09-13T04:00:37.925Z,0
2022-09-13T04:01:47.087Z,0
2022-09-13T04:02:56.272Z,0
2022-09-13T04:04:05.487Z,0
2022-09-13T04:05:14.645Z,0
2022-09-13T04:06:23.787Z,0
2022-09-13T04:07:32.949Z,0
2022-09-13T04:08:42.138Z,0
2022-09-13T04:09:50.387Z,0
2022-09-13T04:10:59.484Z,0
2022-09-13T04:12:08.693Z,0
2022-09-13T04:13:17.871Z,0
2022-09-13T04:14:26.998Z,0
2022-09-13T04:15:36.206Z,0
2022-09-13T04:16:45.350Z,0
2022-09-13T04:17:54.526Z,0
2022-09-13T04:19:03.694Z,0
2022-09-13T04:20:12.936Z,0
2022-09-13T04:21:22.043Z,0
2022-09-13T04:22:31.253Z,0
2022-09-13T04:23:40.379Z,0
2022-09-13T04:24:48.571Z,0
2022-09-13T04:25:57.751Z,0
2022-09-13T04:27:06.928Z,0
2022-09-13T04:28:16.170Z,0
2022-09-13T04:29:25.267Z,0
2022-09-13T04:30:34.463Z,0
2022-09-13T04:31:43.661Z,0
2022-09-13T04:32:52.800Z,0
2022-09-13T04:35:11.169Z,0
2022-09-13T04:36:20.303Z,0
2022-09-13T04:37:29.476Z,0
2022-09-13T04:38:37.671Z,0
2022-09-13T04:39:46.837Z,0
2022-09-13T04:40:56.020Z,0
2022-09-13T04:42:05.214Z,0
2022-09-13T04:43:14.411Z,0
2022-09-13T04:44:23.525Z,0
2022-09-13T04:45:32.713Z,0
2022-09-13T04:46:41.890Z,0
2022-09-13T04:47:51.066Z,0
2022-09-13T04:49:00.217Z,0
2022-09-13T04:50:09.391Z,0
2022-09-13T04:51:18.582Z,0
2022-09-13T04:52:27.748Z,0
2022-09-13T04:53:35.922Z,0
2022-09-13T04:54:45.091Z,0
2022-09-13T04:55:54.332Z,0
2022-09-13T04:57:03.475Z,0
2022-09-13T04:58:12.635Z,0
2022-09-13T04:59:21.789Z,0
2022-09-13T05:00:31.054Z,0
2022-09-13T05:01:40.134Z,0
2022-09-13T05:02:49.377Z,0
2022-09-13T05:03:58.473Z,0
2022-09-13T05:05:07.670Z,0
2022-09-13T05:06:16.823Z,0
2022-09-13T05:07:25.991Z,0
2022-09-13T05:08:34.211Z,0
2022-09-13T05:09:43.388Z,5
2022-09-13T05:10:52.545Z,5
2022-09-13T05:12:01.757Z,5
2022-09-13T05:13:10.875Z,5
2022-09-13T05:14:20.065Z,5
2022-09-13T05:15:29.283Z,5
2022-09-13T05:16:38.396Z,5
2022-09-13T05:17:47.568Z,5
2022-09-13T05:18:56.737Z,5
2022-09-13T05:20:05.915Z,11
2022-09-13T05:21:15.162Z,11
2022-09-13T05:22:24.253Z,11
2022-09-13T05:23:32.442Z,11
2022-09-13T05:24:41.616Z,11
2022-09-13T05:25:50.794Z,11
2022-09-13T05:26:59.960Z,11
2022-09-13T05:28:09.140Z,11
2022-09-13T05:29:18.309Z,16
2022-09-13T05:30:27.482Z,16
2022-09-13T05:31:36.650Z,16
2022-09-13T05:32:45.836Z,16
2022-09-13T05:33:55.003Z,16
2022-09-13T05:35:04.179Z,16
2022-09-13T05:36:13.360Z,22
2022-09-13T05:37:22.526Z,22
2022-09-13T05:38:30.699Z,22
2022-09-13T05:39:39.904Z,22
2022-09-13T05:40:49.051Z,22
2022-09-13T05:41:58.216Z,22
2022-09-13T05:43:07.398Z,28
2022-09-13T05:44:16.568Z,28
2022-09-13T05:45:25.752Z,28
2022-09-13T05:47:44.091Z,28
2022-09-13T05:48:53.271Z,33
2022-09-13T05:50:02.454Z,33
2022-09-13T05:51:11.649Z,33
2022-09-13T05:52:20.773Z,33
2022-09-13T05:53:28.963Z,33
2022-09-13T05:54:38.148Z,33
2022-09-13T05:55:47.329Z,33
2022-09-13T05:56:56.498Z,33
2022-09-13T05:58:05.682Z,33
2022-09-13T05:59:14.820Z,33
2022-09-13T06:00:24.043Z,28
2022-09-13T06:01:33.171Z,28
2022-09-13T06:02:42.379Z,28
2022-09-13T06:05:00.758Z,28
2022-09-13T06:06:09.874Z,28
2022-09-13T06:07:19.041Z,33
2022-09-13T06:08:27.222Z,33
2022-09-13T06:09:36.397Z,39
2022-09-13T06:10:45.572Z,39
2022-09-13T06:11:54.746Z,50
2022-09-13T06:13:03.921Z,56
2022-09-13T06:14:13.085Z,56
2022-09-13T06:15:22.297Z,61
2022-09-13T06:16:31.450Z,61
2022-09-13T06:17:40.607Z,73
2022-09-13T06:18:49.782Z,73
2022-09-13T06:19:58.940Z,73
2022-09-13T06:21:08.126Z,61
2022-09-13T06:22:17.296Z,67
2022-09-13T06:23:25.484Z,61
2022-09-13T06:24:34.711Z,61
2022-09-13T06:25:43.846Z,56
2022-09-13T06:26:53.047Z,50
2022-09-13T06:28:02.229Z,45
2022-09-13T06:29:11.363Z,39
2022-09-13T06:30:20.524Z,39
2022-09-13T06:31:29.722Z,33
2022-09-13T06:32:38.864Z,33
2022-09-13T06:33:48.038Z,33
2022-09-13T06:34:57.219Z,33
2022-09-13T06:36:06.391Z,45
2022-09-13T06:37:15.555Z,56
2022-09-13T06:38:23.854Z,61
2022-09-13T06:39:32.923Z,67
2022-09-13T06:40:42.093Z,67
2022-09-13T06:41:51.294Z,67
2022-09-13T06:43:00.545Z,61
2022-09-13T06:44:09.643Z,61
2022-09-13T06:45:18.849Z,67
2022-09-13T06:46:27.949Z,73
2022-09-13T06:47:37.126Z,78
2022-09-13T06:48:46.299Z,84
2022-09-13T06:49:55.507Z,84
2022-09-13T06:51:04.685Z,84
2022-09-13T06:52:14.018Z,84
2022-09-13T06:53:21.998Z,90
2022-09-13T06:54:31.199Z,84
2022-09-13T06:55:40.414Z,84
2022-09-13T06:56:49.544Z,84
2022-09-13T06:57:58.695Z,78
2022-09-13T06:59:07.869Z,73
2022-09-13T07:00:17.037Z,78
2022-09-13T07:01:26.217Z,84
2022-09-13T07:02:35.384Z,78
2022-09-13T07:03:44.562Z,78
2022-09-13T07:04:53.722Z,78
2022-09-13T07:06:02.925Z,78
2022-09-13T07:07:12.097Z,73
2022-09-13T07:08:20.255Z,78
2022-09-13T07:09:29.420Z,84
2022-09-13T07:10:38.603Z,84
2022-09-13T07:11:47.850Z,84
2022-09-13T07:12:56.947Z,90
2022-09-13T07:14:06.134Z,95
2022-09-13T07:15:15.303Z,101
2022-09-13T07:16:24.467Z,112
2022-09-13T07:17:33.638Z,118
2022-09-13T07:18:42.813Z,118
2022-09-13T07:19:51.982Z,123
2022-09-13T07:21:01.159Z,123
2022-09-13T07:22:10.327Z,123
2022-09-13T07:23:19.501Z,123
2022-09-13T07:24:27.700Z,123
2022-09-13T07:25:36.855Z,123
2022-09-13T07:26:46.035Z,118
2022-09-13T07:27:54.229Z,118
2022-09-13T07:29:02.415Z,123
2022-09-13T07:30:11.587Z,112
2022-09-13T07:31:20.773Z,106
2022-09-13T07:32:29.922Z,106
2022-09-13T07:33:39.121Z,106
2022-09-13T07:34:48.278Z,112
2022-09-13T07:35:57.441Z,123
2022-09-13T07:37:05.662Z,123
2022-09-13T07:38:13.835Z,129
2022-09-13T07:39:23.016Z,123
2022-09-13T07:40:32.180Z,123
2022-09-13T07:41:41.399Z,118
2022-09-13T07:42:50.513Z,112
2022-09-13T07:43:59.711Z,112
2022-09-13T07:45:08.864Z,106
2022-09-13T07:46:18.040Z,106
2022-09-13T07:48:36.477Z,118
2022-09-13T07:50:54.727Z,129
2022-09-13T07:52:02.963Z,129
2022-09-13T07:53:11.117Z,123
2022-09-13T07:54:20.299Z,123
2022-09-13T07:55:29.461Z,123
2022-09-13T07:56:38.620Z,123
2022-09-13T07:57:47.809Z,123
2022-09-13T07:58:56.981Z,129
2022-09-13T08:00:06.196Z,129
2022-09-13T08:01:15.312Z,129
2022-09-13T08:02:24.513Z,129
2022-09-13T08:03:33.672Z,129
2022-09-13T08:04:41.858Z,129
2022-09-13T08:05:50.039Z,129
2022-09-13T08:06:59.249Z,129
2022-09-13T08:08:08.401Z,123
2022-09-13T08:09:17.601Z,123
2022-09-13T08:10:26.745Z,129
2022-09-13T08:11:35.927Z,129
2022-09-13T08:12:45.132Z,123
2022-09-13T08:13:54.271Z,112
2022-09-13T08:15:03.429Z,101
2022-09-13T08:16:12.597Z,95
2022-09-13T08:17:21.801Z,90
2022-09-13T08:18:30.941Z,84
2022-09-13T08:19:40.105Z,84
2022-09-13T08:20:48.302Z,78
2022-09-13T08:21:57.494Z,90
2022-09-13T08:23:06.658Z,95
2022-09-13T08:24:15.850Z,84
2022-09-13T08:25:24.997Z,95
2022-09-13T08:26:34.210Z,112
2022-09-13T08:27:43.338Z,123
2022-09-13T08:28:52.525Z,123
2022-09-13T08:31:10.869Z,123
2022-09-13T08:32:19.052Z,129
2022-09-13T08:33:28.229Z,129
2022-09-13T08:34:37.386Z,129
2022-09-13T08:35:46.592Z,135
2022-09-13T08:36:55.811Z,129
2022-09-13T08:38:04.963Z,129
2022-09-13T08:39:14.086Z,135
2022-09-13T08:40:23.258Z,146
2022-09-13T08:41:32.435Z,163
2022-09-13T08:42:41.595Z,180
2022-09-13T08:43:50.772Z,185
2022-09-13T08:44:59.960Z,180
2022-09-13T08:46:09.185Z,174
2022-09-13T08:47:17.296Z,168
2022-09-13T08:48:26.479Z,163
2022-09-13T08:49:35.646Z,146
2022-09-13T08:50:44.839Z,129
2022-09-13T08:51:53.989Z,123
2022-09-13T08:53:03.169Z,123
2022-09-13T08:54:12.340Z,146
2022-09-13T08:55:21.549Z,168
2022-09-13T08:56:30.700Z,185
2022-09-13T08:57:39.881Z,191
2022-09-13T08:58:49.038Z,202
2022-09-13T08:59:58.197Z,208
2022-09-13T09:01:07.386Z,202
2022-09-13T09:02:16.552Z,196
2022-09-13T09:03:24.734Z,185
2022-09-13T09:04:33.913Z,185
2022-09-13T09:05:43.134Z,180
2022-09-13T09:06:52.253Z,174
2022-09-13T09:08:01.521Z,174
2022-09-13T09:09:10.638Z,180
2022-09-13T09:10:19.825Z,185
2022-09-13T09:11:28.934Z,202
2022-09-13T09:12:38.110Z,213
2022-09-13T09:13:47.282Z,225
2022-09-13T09:14:56.462Z,225
2022-09-13T09:16:05.703Z,219
2022-09-13T09:17:14.888Z,208
2022-09-13T09:18:23.015Z,202
2022-09-13T09:19:32.213Z,208
2022-09-13T09:20:41.353Z,213
2022-09-13T09:21:50.514Z,247
2022-09-13T09:22:59.693Z,258
2022-09-13T09:24:08.900Z,270
2022-09-13T09:25:18.157Z,298
2022-09-13T09:26:27.195Z,320
2022-09-13T09:27:36.496Z,354
2022-09-13T09:28:45.625Z,416
2022-09-13T09:29:54.731Z,382
2022-09-13T09:31:03.968Z,365
2022-09-13T09:33:22.292Z,421
2022-09-13T09:34:30.495Z,320
2022-09-13T09:35:39.623Z,303
2022-09-13T09:36:47.881Z,298
2022-09-13T09:37:55.996Z,298
2022-09-13T09:39:05.150Z,320
2022-09-13T09:40:14.436Z,320
2022-09-13T09:41:22.646Z,320
2022-09-13T09:42:30.823Z,331
2022-09-13T09:43:39.931Z,292
2022-09-13T09:44:49.173Z,275
2022-09-13T09:45:58.283Z,264
2022-09-13T09:47:07.507Z,241
2022-09-13T09:48:16.566Z,225
2022-09-13T09:49:25.834Z,196
2022-09-13T09:50:34.914Z,180
2022-09-13T09:51:44.167Z,174
2022-09-13T09:52:53.315Z,174
2022-09-13T09:54:02.466Z,185
2022-09-13T09:55:11.621Z,191
2022-09-13T09:56:20.791Z,196
2022-09-13T09:57:29.029Z,208
2022-09-13T09:58:38.144Z,213
2022-09-13T09:59:47.319Z,202
2022-09-13T10:00:56.476Z,202
2022-09-13T10:02:05.661Z,202
2022-09-13T10:03:14.903Z,208
2022-09-13T10:04:23.992Z,225
2022-09-13T10:05:33.218Z,241
2022-09-13T10:06:42.371Z,247
2022-09-13T10:09:00.747Z,241
2022-09-13T10:11:19.039Z,281
2022-09-13T10:12:27.224Z,303
2022-09-13T10:13:36.392Z,337
2022-09-13T10:14:45.610Z,292
2022-09-13T10:15:54.821Z,292
2022-09-13T10:17:03.918Z,298
2022-09-13T10:18:13.078Z,315
2022-09-13T10:19:22.256Z,315
2022-09-13T10:20:31.418Z,315
2022-09-13T10:21:40.637Z,320
2022-09-13T10:22:49.793Z,331
2022-09-13T10:25:08.104Z,337
2022-09-13T10:26:16.356Z,320
2022-09-13T10:27:25.488Z,292
2022-09-13T10:28:34.650Z,270
2022-09-13T10:29:42.843Z,241
2022-09-13T10:30:52.022Z,241
2022-09-13T10:32:01.184Z,236
2022-09-13T10:33:10.354Z,264
2022-09-13T10:34:19.533Z,275
2022-09-13T10:35:28.702Z,281
2022-09-13T10:36:37.876Z,298
2022-09-13T10:37:47.050Z,315
2022-09-13T10:38:56.240Z,326
2022-09-13T10:40:04.408Z,326
2022-09-13T10:41:12.621Z,354
2022-09-13T10:42:21.775Z,337
2022-09-13T10:43:30.945Z,315
2022-09-13T10:44:40.155Z,270
2022-09-13T10:45:49.288Z,236
2022-09-13T10:46:58.455Z,253
2022-09-13T10:49:16.803Z,236
2022-09-13T10:50:25.980Z,230
2022-09-13T10:51:35.162Z,225
2022-09-13T10:52:44.323Z,230
2022-09-13T10:53:53.610Z,196
2022-09-13T10:55:02.667Z,168
2022-09-13T10:56:10.861Z,151
2022-09-13T10:57:20.030Z,140
2022-09-13T10:58:29.202Z,140
2022-09-13T10:59:38.383Z,135
2022-09-13T11:00:47.548Z,157
2022-09-13T11:01:56.727Z,140
2022-09-13T11:03:05.899Z,112
2022-09-13T11:04:15.067Z,101
2022-09-13T11:05:24.238Z,90
2022-09-13T11:06:33.427Z,78
2022-09-13T11:07:42.579Z,73
2022-09-13T11:08:51.803Z,67
2022-09-13T11:10:00.922Z,73
2022-09-13T11:11:09.120Z,78
2022-09-13T11:12:18.300Z,84
2022-09-13T11:13:27.457Z,73
2022-09-13T11:14:36.638Z,73
2022-09-13T11:15:45.807Z,101
2022-09-13T11:16:54.969Z,112
2022-09-13T11:18:04.143Z,106
2022-09-13T11:19:13.324Z,90
2022-09-13T11:20:22.494Z,84
2022-09-13T11:21:31.659Z,84
2022-09-13T11:22:40.882Z,84
2022-09-13T11:23:50.024Z,84
2022-09-13T11:24:59.189Z,90
2022-09-13T11:26:07.370Z,84
2022-09-13T11:27:16.546Z,78
2022-09-13T11:28:25.720Z,78
2022-09-13T11:29:34.883Z,78
2022-09-13T11:30:44.071Z,95
2022-09-13T11:31:53.232Z,95
2022-09-13T11:33:02.411Z,90
2022-09-13T11:34:11.613Z,78
2022-09-13T11:35:20.758Z,84
2022-09-13T11:36:29.924Z,78
2022-09-13T11:37:39.097Z,84
2022-09-13T11:38:48.265Z,95
2022-09-13T11:39:57.445Z,101
2022-09-13T11:41:05.720Z,101
2022-09-13T11:42:14.801Z,118
2022-09-13T11:43:23.967Z,146
2022-09-13T11:44:33.151Z,140
2022-09-13T11:45:42.324Z,135
2022-09-13T11:46:51.492Z,129
2022-09-13T11:48:00.666Z,106
2022-09-13T11:49:09.833Z,101
2022-09-13T11:50:19.006Z,95
2022-09-13T11:51:28.201Z,90
2022-09-13T11:52:37.361Z,112
2022-09-13T11:53:46.521Z,129
2022-09-13T11:54:55.702Z,123
2022-09-13T11:56:03.895Z,123
2022-09-13T11:57:13.113Z,123
2022-09-13T11:58:22.284Z,129
2022-09-13T11:59:31.421Z,140
2022-09-13T12:00:40.577Z,146
2022-09-13T12:01:49.751Z,135
2022-09-13T12:02:58.946Z,140
2022-09-13T12:04:08.102Z,135
2022-09-13T12:05:17.265Z,135
2022-09-13T12:06:26.444Z,146
2022-09-13T12:07:35.621Z,151
2022-09-13T12:08:44.795Z,168
2022-09-13T12:09:53.957Z,202
2022-09-13T12:11:02.152Z,225
2022-09-13T12:12:11.333Z,236
2022-09-13T12:13:20.505Z,236
2022-09-13T12:15:38.870Z,219
2022-09-13T12:16:48.014Z,230
2022-09-13T12:17:57.198Z,219
2022-09-13T12:19:06.372Z,191
2022-09-13T12:20:15.540Z,174
2022-09-13T12:21:24.721Z,185
2022-09-13T12:22:33.888Z,213
2022-09-13T12:23:42.073Z,258
2022-09-13T12:24:51.265Z,264
2022-09-13T12:26:00.422Z,303
2022-09-13T12:27:09.586Z,331
2022-09-13T12:28:18.763Z,292
2022-09-13T12:29:27.967Z,281
2022-09-13T12:30:37.109Z,264
2022-09-13T12:31:46.292Z,292
2022-09-13T12:32:55.461Z,286
2022-09-13T12:34:04.640Z,337
2022-09-13T12:35:13.829Z,416
2022-09-13T12:36:22.962Z,427
2022-09-13T12:37:32.149Z,450
2022-09-13T12:38:41.309Z,354
2022-09-13T12:39:49.499Z,331
2022-09-13T12:40:58.684Z,275
2022-09-13T12:42:07.860Z,506
2022-09-13T12:43:17.021Z,343
2022-09-13T12:44:26.191Z,360
2022-09-13T12:45:35.362Z,506
2022-09-13T12:46:44.552Z,540
2022-09-13T12:47:53.796Z,264
2022-09-13T12:49:02.872Z,270
2022-09-13T12:50:12.147Z,258
2022-09-13T12:51:21.213Z,270
2022-09-13T12:52:30.461Z,303
2022-09-13T12:53:39.636Z,427
2022-09-13T12:54:47.786Z,365
2022-09-13T12:55:57.031Z,376
2022-09-13T12:57:06.218Z,438
2022-09-13T12:58:15.318Z,506
2022-09-13T12:59:24.570Z,624
2022-09-13T13:00:33.617Z,838
2022-09-13T13:01:42.817Z,635
2022-09-13T13:02:51.960Z,984
2022-09-13T13:04:01.183Z,877
2022-09-13T13:05:10.413Z,489
2022-09-13T13:06:19.484Z,444
2022-09-13T13:07:28.758Z,393
2022-09-13T13:08:37.878Z,393
2022-09-13T13:09:46.102Z,517
2022-09-13T13:10:55.192Z,495
2022-09-13T13:12:03.417Z,517
2022-09-13T13:13:11.576Z,393
2022-09-13T13:14:20.752Z,286
2022-09-13T13:15:28.943Z,219
2022-09-13T13:17:47.320Z,213
2022-09-13T13:18:55.469Z,213
2022-09-13T13:20:04.644Z,196
2022-09-13T13:21:13.819Z,185
2022-09-13T13:22:22.994Z,196
2022-09-13T13:23:32.174Z,208
2022-09-13T13:24:41.362Z,208
2022-09-13T13:25:50.506Z,241
2022-09-13T13:26:59.697Z,286
2022-09-13T13:28:08.869Z,360
2022-09-13T13:29:18.087Z,421
2022-09-13T13:30:27.200Z,427
2022-09-13T13:31:36.367Z,478
2022-09-13T13:32:45.589Z,511
2022-09-13T13:33:53.731Z,495
2022-09-13T13:35:02.930Z,517
2022-09-13T13:36:12.103Z,1057
2022-09-13T13:37:21.250Z,495
2022-09-13T13:38:30.419Z,450
2022-09-13T13:39:39.600Z,388
2022-09-13T13:40:48.802Z,337
2022-09-13T13:41:57.948Z,320
2022-09-13T13:43:07.117Z,326
2022-09-13T13:44:16.302Z,298
2022-09-13T13:45:25.459Z,472
2022-09-13T13:46:34.700Z,236
2022-09-13T13:47:43.809Z,202
2022-09-13T13:48:52.130Z,230
2022-09-13T13:50:01.281Z,258
2022-09-13T13:51:10.455Z,348
2022-09-13T13:52:19.594Z,984
2022-09-13T13:53:28.751Z,1080
2022-09-13T13:54:37.939Z,1181
2022-09-13T13:55:47.031Z,624
2022-09-13T13:56:55.265Z,545
2022-09-13T13:58:03.410Z,568
2022-09-13T13:59:12.661Z,1845
2022-09-13T14:00:21.761Z,838
2022-09-13T14:01:30.916Z,832
2022-09-13T14:02:40.190Z,1085
2022-09-13T14:03:49.299Z,804
2022-09-13T14:04:58.474Z,2098
2022-09-13T14:06:07.620Z,534
2022-09-13T14:07:16.785Z,461
2022-09-13T14:08:26.006Z,697
2022-09-13T14:09:35.175Z,461
2022-09-13T14:10:44.317Z,995
2022-09-13T14:11:53.475Z,466
2022-09-13T14:13:01.748Z,360
2022-09-13T14:14:10.840Z,360
2022-09-13T14:15:20.050Z,360
2022-09-13T14:16:29.183Z,365
2022-09-13T14:17:38.355Z,399
2022-09-13T14:18:47.525Z,922
2022-09-13T14:19:56.781Z,416
2022-09-13T14:21:05.903Z,511
2022-09-13T14:22:15.092Z,1327
2022-09-13T14:23:24.242Z,1659
2022-09-13T14:24:32.399Z,1260
2022-09-13T14:25:40.661Z,708
2022-09-13T14:26:49.835Z,1985
2022-09-13T14:27:58.943Z,1350
2022-09-13T14:29:08.111Z,579
2022-09-13T14:30:16.389Z,2311
2022-09-13T14:31:24.503Z,551
2022-09-13T14:32:33.688Z,1192
2022-09-13T14:33:42.957Z,742
2022-09-13T14:34:52.031Z,1338
2022-09-13T14:36:01.192Z,613
2022-09-13T14:37:10.378Z,900
2022-09-13T14:38:19.550Z,1411
2022-09-13T14:39:28.718Z,1597
2022-09-13T14:40:37.914Z,2154
2022-09-13T14:41:47.067Z,1929
2022-09-13T14:42:56.223Z,1816
2022-09-13T14:44:05.443Z,2019
2022-09-13T14:45:14.705Z,1805
2022-09-13T14:46:22.861Z,1451
2022-09-13T14:47:32.051Z,1648
2022-09-13T14:48:41.129Z,1800
2022-09-13T14:49:50.327Z,1901
2022-09-13T14:50:59.535Z,607
2022-09-13T14:52:08.742Z,1856
2022-09-13T14:53:17.826Z,1631
2022-09-13T14:54:26.967Z,1333
2022-09-13T14:55:36.150Z,1524
2022-09-13T14:56:45.353Z,1805
2022-09-13T14:57:54.516Z,2143
2022-09-13T14:59:03.689Z,2311
2022-09-13T15:00:12.825Z,2210
2022-09-13T15:01:21.134Z,2306
2022-09-13T15:02:30.247Z,2092
2022-09-13T15:03:39.472Z,1974
2022-09-13T15:04:48.612Z,1800
2022-09-13T15:05:57.731Z,2193
2022-09-13T15:07:06.887Z,1406
2022-09-13T15:08:16.095Z,725
2022-09-13T15:09:25.245Z,641
2022-09-13T15:10:34.414Z,1496
2022-09-13T15:11:43.638Z,421
2022-09-13T15:12:52.811Z,241
2022-09-13T15:14:01.939Z,241
2022-09-13T15:15:11.092Z,388
2022-09-13T15:16:19.291Z,753
2022-09-13T15:17:28.454Z,1237
2022-09-13T15:18:37.639Z,1636
2022-09-13T15:19:46.843Z,1496
2022-09-13T15:20:56.027Z,1389
2022-09-13T15:22:05.167Z,1074
2022-09-13T15:23:14.339Z,928
2022-09-13T15:24:23.494Z,1063
2022-09-13T15:25:32.674Z,1771
2022-09-13T15:26:41.938Z,2036
2022-09-13T15:27:51.070Z,1603
2022-09-13T15:29:00.169Z,883
2022-09-13T15:30:09.350Z,826
2022-09-13T15:31:17.541Z,1788
2022-09-13T15:32:26.748Z,1890
2022-09-13T15:33:35.977Z,1850
2022-09-13T15:34:45.143Z,1085
2022-09-13T15:35:54.254Z,1338
2022-09-13T15:37:03.418Z,1316
2022-09-13T15:38:12.586Z,2103
2022-09-13T15:39:21.774Z,2486
2022-09-13T15:40:30.946Z,1749
2022-09-13T15:41:40.091Z,1265
2022-09-13T15:42:49.323Z,1951
2022-09-13T15:43:58.468Z,1035
2022-09-13T15:45:07.619Z,1006
2022-09-13T15:46:15.826Z,1524
2022-09-13T15:47:24.978Z,2103
2022-09-13T15:48:34.171Z,770
2022-09-13T15:49:43.329Z,1018
2022-09-13T15:50:52.491Z,1265
2022-09-13T15:52:01.659Z,1732
2022-09-13T15:53:10.879Z,1085
2022-09-13T15:54:20.090Z,1440
2022-09-13T15:55:29.188Z,450
2022-09-13T15:56:38.353Z,461
2022-09-13T15:57:47.550Z,478
2022-09-13T15:58:56.715Z,551
2022-09-13T16:00:05.873Z,478
2022-09-13T16:01:14.064Z,545
2022-09-13T16:02:23.233Z,258
2022-09-13T16:03:32.413Z,303
2022-09-13T16:04:41.589Z,686
2022-09-13T16:05:50.746Z,590
2022-09-13T16:06:59.938Z,703
2022-09-13T16:09:18.286Z,2013
2022-09-13T16:10:27.439Z,1035
2022-09-13T16:11:36.611Z,1524
2022-09-13T16:12:45.806Z,866
2022-09-13T16:13:54.967Z,416
2022-09-13T16:15:03.157Z,286
2022-09-13T16:16:12.330Z,264
2022-09-13T16:17:21.499Z,225
2022-09-13T16:18:30.730Z,202
2022-09-13T16:19:39.838Z,185
2022-09-13T16:20:49.067Z,180
2022-09-13T16:21:58.201Z,174
2022-09-13T16:23:07.368Z,185
2022-09-13T16:24:16.533Z,174
2022-09-13T16:25:25.717Z,168
2022-09-13T16:26:34.964Z,168
2022-09-13T16:27:44.096Z,168
2022-09-13T16:28:53.235Z,163
2022-09-13T16:30:01.407Z,157
2022-09-13T16:31:10.693Z,146
2022-09-13T16:32:19.813Z,146